Time;durP1;ratioP1;P1;durP2;ratioP2;P2;SDS_P1;SDS_P2;PMS_P1;PMS_P2;Temp;Humidity;BMP_temperature;BMP_pressure;BME280_temperature;BME280_humidity;BME280_pressure;Samples;Min_cycle;Max_cycle;Signal;HPM_P1;HPM_P2
2022/02/18 00:01:13;;;;;;;3.70;1.63;;;;;;;4.71;53.85;97503.63;5113643;28;20020;-75
2022/02/18 00:03:38;;;;;;;3.08;1.20;;;;;;;4.65;53.27;97512.91;5114620;28;20540;-75
2022/02/18 00:06:05;;;;;;;7.88;3.70;;;;;;;4.61;53.67;97517.28;5114066;28;20103;-75
2022/02/18 00:08:31;;;;;;;4.25;1.33;;;;;;;4.55;53.53;97523.84;5113644;28;20030;-74
2022/02/18 00:10:56;;;;;;;3.83;1.40;;;;;;;4.43;53.55;97514.13;5114093;28;20031;-75
2022/02/18 00:13:22;;;;;;;4.13;1.27;;;;;;;4.39;53.69;97515.75;5114366;28;20012;-76
2022/02/18 00:15:48;;;;;;;2.85;0.93;;;;;;;4.37;52.81;97528.78;5113969;28;20055;-76
2022/02/18 00:18:13;;;;;;;2.90;1.35;;;;;;;4.32;52.47;97535.06;5114104;28;20471;-76
2022/02/18 00:20:39;;;;;;;3.70;1.02;;;;;;;4.30;52.38;97531.00;5111061;28;20016;-76
2022/02/18 00:23:06;;;;;;;3.40;0.90;;;;;;;4.32;51.54;97545.09;5113921;28;20020;-76
2022/02/18 00:25:34;;;;;;;2.83;0.90;;;;;;;4.32;50.33;97554.06;5111188;28;20489;-76
2022/02/18 00:28:00;;;;;;;2.75;0.90;;;;;;;4.42;50.29;97555.13;5114039;28;20505;-76
2022/02/18 00:30:26;;;;;;;2.75;0.77;;;;;;;4.46;50.65;97557.00;5113581;28;20008;-76
2022/02/18 00:32:53;;;;;;;2.70;0.95;;;;;;;4.49;49.38;97552.91;5113774;28;20020;-75
2022/02/18 00:35:19;;;;;;;2.47;0.82;;;;;;;4.53;50.19;97564.03;5113697;28;20016;-76
2022/02/18 00:37:49;;;;;;;1.63;0.93;;;;;;;4.54;49.54;97576.53;5113112;28;20096;-75
2022/02/18 00:40:15;;;;;;;3.83;1.10;;;;;;;4.50;49.66;97580.88;5093207;28;20023;-76
2022/02/18 00:42:41;;;;;;;2.20;0.70;;;;;;;4.52;49.08;97592.28;5095197;28;20035;-75
2022/02/18 00:45:08;;;;;;;3.85;0.93;;;;;;;4.49;49.15;97581.97;5094362;28;20096;-75
2022/02/18 00:47:33;;;;;;;1.50;0.70;;;;;;;4.51;48.56;97599.59;5095312;28;20427;-75
2022/02/18 00:49:59;;;;;;;6.03;1.10;;;;;;;4.52;48.72;97581.41;5112723;28;20039;-75
2022/02/18 00:52:24;;;;;;;2.42;0.77;;;;;;;4.51;48.49;97591.44;5113144;28;20031;-74
2022/02/18 00:54:49;;;;;;;4.15;0.70;;;;;;;4.50;48.75;97595.25;5094753;28;20043;-74
2022/02/18 00:57:16;;;;;;;3.30;0.80;;;;;;;4.49;48.85;97604.50;5112984;28;20480;-75
2022/02/18 00:59:42;;;;;;;3.05;0.68;;;;;;;4.47;49.22;97602.06;5113195;28;20095;-75
2022/02/18 01:02:07;;;;;;;3.10;0.80;;;;;;;4.43;49.16;97614.56;5112567;28;20527;-74
2022/02/18 01:04:33;;;;;;;2.13;0.80;;;;;;;4.42;49.64;97615.66;5113391;28;20479;-75
2022/02/18 01:06:59;;;;;;;1.63;0.50;;;;;;;4.42;49.99;97612.94;5112868;28;20436;-75
2022/02/18 01:09:25;;;;;;;4.97;1.35;;;;;;;4.40;50.76;97630.59;5112855;28;20028;-74
2022/02/18 01:11:50;;;;;;;4.13;1.13;;;;;;;4.38;50.54;97635.50;5112167;28;20016;-75
2022/02/18 01:14:15;;;;;;;2.72;0.80;;;;;;;4.36;50.41;97635.75;5113006;28;20030;-75
2022/02/18 01:16:41;;;;;;;2.58;0.98;;;;;;;4.32;50.74;97631.97;5113045;28;20031;-75
2022/02/18 01:19:06;;;;;;;3.75;0.93;;;;;;;4.27;50.79;97645.59;5111794;28;20049;-75
2022/02/18 01:21:32;;;;;;;2.58;0.85;;;;;;;4.26;50.05;97643.94;5112286;28;20030;-75
2022/02/18 01:23:57;;;;;;;3.90;1.00;;;;;;;4.24;50.49;97646.94;5112714;28;20516;-75
2022/02/18 01:26:23;;;;;;;3.50;1.02;;;;;;;4.25;50.09;97629.56;5113221;28;20417;-74
2022/02/18 01:28:48;;;;;;;4.00;0.80;;;;;;;4.23;49.95;97642.59;5112777;28;20038;-75
2022/02/18 01:31:14;;;;;;;4.13;0.80;;;;;;;4.21;50.63;97642.03;5112112;28;20016;-75
2022/02/18 01:33:40;;;;;;;1.77;0.63;;;;;;;4.16;50.73;97640.16;5112711;28;20020;-75
2022/02/18 01:36:05;;;;;;;3.70;0.80;;;;;;;4.12;50.28;97644.50;5112657;28;20476;-75
2022/02/18 01:38:31;;;;;;;2.40;0.95;;;;;;;4.10;51.03;97652.13;5094080;28;20031;-75
2022/02/18 01:40:56;;;;;;;3.80;1.00;;;;;;;4.06;51.33;97656.47;5112258;28;20110;-75
2022/02/18 01:43:22;;;;;;;2.97;0.73;;;;;;;4.00;51.67;97665.69;5112761;28;20023;-75
2022/02/18 01:45:48;;;;;;;2.85;1.08;;;;;;;4.00;50.97;97671.09;5112435;28;20027;-75
2022/02/18 01:48:13;;;;;;;2.83;0.75;;;;;;;3.98;51.54;97665.16;5112834;28;20019;-75
2022/02/18 01:50:39;;;;;;;4.30;0.93;;;;;;;3.98;50.98;97673.28;5112045;28;20076;-75
2022/02/18 01:53:05;;;;;;;4.03;0.73;;;;;;;3.97;51.77;97677.91;5108005;28;20028;-75
2022/02/18 01:55:31;;;;;;;2.03;0.90;;;;;;;3.95;51.27;97671.94;5111409;28;20050;-74
2022/02/18 01:57:59;;;;;;;4.20;0.80;;;;;;;3.98;51.05;97673.28;5111570;28;20031;-74
2022/02/18 02:00:28;;;;;;;3.60;0.80;;;;;;;3.99;51.27;97686.59;5111365;28;20483;-73
2022/02/18 02:02:54;;;;;;;2.22;0.80;;;;;;;3.97;51.33;97683.34;5109404;28;20016;-73
2022/02/18 02:05:20;;;;;;;3.22;1.00;;;;;;;3.93;51.36;97679.53;5111958;28;20008;-74
2022/02/18 02:07:47;;;;;;;2.70;0.70;;;;;;;3.94;51.54;97685.75;5111871;28;20583;-75
2022/02/18 02:10:14;;;;;;;4.15;1.27;;;;;;;3.92;52.52;97686.03;5111220;28;20026;-75
2022/02/18 02:12:43;;;;;;;1.05;0.60;;;;;;;3.91;52.14;97683.59;5111370;28;20022;-75
2022/02/18 02:15:10;;;;;;;3.80;0.90;;;;;;;3.87;52.11;97686.03;5111496;28;20114;-75
2022/02/18 02:17:35;;;;;;;2.28;0.70;;;;;;;3.86;52.31;97695.28;5110900;28;20024;-75
2022/02/18 02:20:05;;;;;;;1.92;0.77;;;;;;;3.85;51.91;97696.34;5110781;28;20383;-74
2022/02/18 02:22:30;;;;;;;2.17;1.00;;;;;;;3.82;52.25;97700.44;5107818;28;20407;-75
2022/02/18 02:24:57;;;;;;;4.18;0.82;;;;;;;3.79;52.82;97692.84;5110759;28;20024;-74
2022/02/18 02:27:23;;;;;;;2.42;1.10;;;;;;;3.78;52.29;97693.91;5110885;28;20102;-75
2022/02/18 02:29:49;;;;;;;3.17;0.80;;;;;;;3.77;52.11;97695.00;5110521;28;20494;-75
2022/02/18 02:32:15;;;;;;;5.53;2.10;;;;;;;3.73;52.61;97677.63;5110360;28;20027;-74
2022/02/18 02:34:41;;;;;;;4.38;1.08;;;;;;;3.69;51.87;97701.75;5110934;28;20038;-74
2022/02/18 02:37:06;;;;;;;4.38;0.80;;;;;;;3.70;50.91;97691.75;5110823;28;20107;-75
2022/02/18 02:39:33;;;;;;;3.58;1.10;;;;;;;3.75;51.26;97682.78;5110355;28;20018;-74
2022/02/18 02:42:00;;;;;;;3.88;0.90;;;;;;;3.73;51.70;97710.19;5110209;28;20091;-74
2022/02/18 02:44:27;;;;;;;3.38;1.33;;;;;;;3.70;51.09;97700.66;5111066;28;20490;-75
2022/02/18 02:46:52;;;;;;;2.45;1.10;;;;;;;3.66;51.76;97696.91;5110071;28;20564;-75
2022/02/18 02:49:18;;;;;;;3.40;1.15;;;;;;;3.62;51.11;97700.41;5110666;28;20031;-74
2022/02/18 02:51:43;;;;;;;3.40;1.38;;;;;;;3.57;51.29;97693.09;5110325;28;20019;-74
2022/02/18 02:54:09;;;;;;;5.70;1.10;;;;;;;3.52;51.84;97702.00;5110284;28;20016;-74
2022/02/18 02:56:34;;;;;;;3.53;1.20;;;;;;;3.53;51.18;97702.84;5109975;28;20054;-74
2022/02/18 02:59:00;;;;;;;2.63;1.08;;;;;;;3.50;51.33;97708.78;5110685;28;20034;-74
2022/02/18 03:01:25;;;;;;;4.03;1.40;;;;;;;3.47;52.16;97709.34;5092309;28;20035;-75
2022/02/18 03:03:51;;;;;;;5.55;1.17;;;;;;;3.45;51.83;97715.03;5110947;28;20023;-75
2022/02/18 03:06:16;;;;;;;2.78;1.00;;;;;;;3.46;51.99;97721.25;5110942;28;20464;-74
2022/02/18 03:08:42;;;;;;;2.97;1.00;;;;;;;3.41;51.56;97722.06;5110547;28;20016;-74
2022/02/18 03:11:16;;;;;;;5.32;0.90;;;;;;;3.38;51.75;97723.41;5090927;28;20028;-74
2022/02/18 03:13:49;;;;;;;4.32;0.65;;;;;;;3.36;51.92;97730.97;5109668;28;20444;-74
2022/02/18 03:16:17;;;;;;;1.73;0.80;;;;;;;3.37;52.81;97742.66;5108556;28;20043;-74
2022/02/18 03:18:43;;;;;;;2.38;0.80;;;;;;;3.34;52.00;97733.16;5110302;28;20038;-74
2022/02/18 03:21:09;;;;;;;3.17;1.00;;;;;;;3.33;52.18;97739.66;5110044;28;20032;-73
2022/02/18 03:23:35;;;;;;;3.55;1.30;;;;;;;3.32;53.11;97737.22;5108339;28;20039;-74
2022/02/18 03:26:00;;;;;;;6.47;2.05;;;;;;;3.27;52.44;97751.53;5110266;28;20027;-74
2022/02/18 03:28:26;;;;;;;3.75;0.93;;;;;;;3.25;52.80;97753.75;5109596;28;20034;-74
2022/02/18 03:30:52;;;;;;;4.45;1.00;;;;;;;3.25;52.76;97761.88;5110184;28;20011;-74
2022/02/18 03:33:17;;;;;;;2.42;0.90;;;;;;;3.28;52.39;97755.88;5110455;28;20023;-74
2022/02/18 03:35:43;;;;;;;3.42;0.90;;;;;;;3.27;53.44;97768.63;5110573;28;20083;-74
2022/02/18 03:38:09;;;;;;;3.33;1.08;;;;;;;3.22;52.79;97760.50;5091196;28;20077;-75
2022/02/18 03:40:35;;;;;;;5.00;1.60;;;;;;;3.20;53.02;97772.69;5109739;28;20065;-74
2022/02/18 03:43:00;;;;;;;6.35;2.28;;;;;;;3.16;53.64;97774.28;5110370;28;20024;-74
2022/02/18 03:45:26;;;;;;;5.53;2.55;;;;;;;3.12;53.69;97774.81;5110810;28;20016;-75
2022/02/18 03:47:52;;;;;;;6.50;2.03;;;;;;;3.11;53.62;97772.34;5110055;28;20543;-74
2022/02/18 03:50:18;;;;;;;4.75;1.73;;;;;;;3.06;54.14;97781.28;5110025;28;20024;-74
2022/02/18 03:52:44;;;;;;;3.83;1.55;;;;;;;3.03;53.61;97783.72;5090475;28;20452;-75
2022/02/18 03:55:09;;;;;;;6.80;2.55;;;;;;;2.96;53.84;97792.06;5109815;28;20718;-73
2022/02/18 03:57:35;;;;;;;5.70;1.70;;;;;;;2.89;53.85;97795.03;5110000;28;20055;-74
2022/02/18 04:00:04;;;;;;;5.03;1.83;;;;;;;2.84;53.94;97792.28;5109570;28;20054;-74
2022/02/18 04:02:29;;;;;;;4.72;1.83;;;;;;;2.77;54.58;97795.22;5110270;28;20033;-74
2022/02/18 04:04:54;;;;;;;4.63;2.28;;;;;;;2.72;54.60;97800.59;5108379;28;20024;-74
2022/02/18 04:07:20;;;;;;;7.82;2.38;;;;;;;2.68;53.92;97797.59;5110375;28;20018;-75
2022/02/18 04:09:45;;;;;;;6.95;2.30;;;;;;;2.66;54.67;97805.16;5110069;28;20413;-74
2022/02/18 04:12:11;;;;;;;5.35;1.77;;;;;;;2.62;54.81;97808.66;5109822;28;20522;-74
2022/02/18 04:14:36;;;;;;;6.18;1.60;;;;;;;2.61;54.39;97801.59;5110160;28;20027;-74
2022/02/18 04:17:02;;;;;;;5.85;1.83;;;;;;;2.57;55.41;97808.63;5110126;28;20026;-74
2022/02/18 04:19:27;;;;;;;5.88;1.70;;;;;;;2.55;55.35;97810.75;5110038;28;20032;-74
2022/02/18 04:21:52;;;;;;;6.45;1.70;;;;;;;2.50;54.95;97811.56;5109664;28;20115;-74
2022/02/18 04:24:18;;;;;;;6.25;1.50;;;;;;;2.46;54.83;97808.53;5110200;28;20046;-74
2022/02/18 04:26:43;;;;;;;4.97;1.40;;;;;;;2.45;55.36;97815.03;5109674;28;20372;-74
2022/02/18 04:29:11;;;;;;;3.35;1.30;;;;;;;2.45;55.81;97814.22;5109572;28;20027;-74
2022/02/18 04:31:36;;;;;;;6.05;1.70;;;;;;;2.47;55.56;97817.50;5107383;28;20027;-75
2022/02/18 04:34:02;;;;;;;4.90;2.00;;;;;;;2.45;56.00;97811.50;5109500;28;20064;-74
2022/02/18 04:36:27;;;;;;;4.55;1.60;;;;;;;2.41;55.84;97811.22;5109777;28;20027;-74
2022/02/18 04:38:54;;;;;;;5.20;1.63;;;;;;;2.37;55.69;97816.31;5110172;28;20075;-74
2022/02/18 04:41:20;;;;;;;4.05;1.88;;;;;;;2.35;55.71;97812.25;5112967;28;20050;-75
2022/02/18 04:43:46;;;;;;;10.88;1.98;;;;;;;2.35;56.19;97815.75;5114005;28;20090;-74
2022/02/18 04:46:12;;;;;;;4.57;1.85;;;;;;;2.34;56.05;97811.44;5113599;28;20125;-74
2022/02/18 04:48:38;;;;;;;5.40;1.50;;;;;;;2.29;56.29;97803.25;5092925;28;20028;-74
2022/02/18 04:51:03;;;;;;;5.82;1.92;;;;;;;2.27;56.67;97815.44;5114473;28;20031;-75
2022/02/18 04:53:28;;;;;;;6.20;1.42;;;;;;;2.27;56.46;97821.66;5114813;28;20081;-75
2022/02/18 04:55:54;;;;;;;6.47;1.90;;;;;;;2.24;56.09;97819.47;5114289;28;20507;-75
2022/02/18 04:58:19;;;;;;;6.50;2.25;;;;;;;2.20;56.51;97816.47;5114240;28;20031;-75
2022/02/18 05:00:45;;;;;;;8.05;3.20;;;;;;;2.17;56.39;97819.69;5113634;28;20024;-75
2022/02/18 05:03:10;;;;;;;9.15;3.70;;;;;;;2.14;56.73;97822.91;5114618;28;20023;-74
2022/02/18 05:05:35;;;;;;;8.88;3.05;;;;;;;2.11;57.48;97818.00;5114485;28;20090;-75
2022/02/18 05:08:01;;;;;;;7.18;2.50;;;;;;;2.10;57.39;97813.66;5114270;28;20068;-75
2022/02/18 05:10:26;;;;;;;5.45;2.95;;;;;;;2.09;57.33;97809.31;5094961;28;20031;-75
2022/02/18 05:12:52;;;;;;;5.97;2.80;;;;;;;2.07;57.42;97809.59;5114216;28;20051;-74
2022/02/18 05:15:17;;;;;;;6.30;2.67;;;;;;;2.06;57.75;97824.19;5114320;28;20023;-74
2022/02/18 05:17:48;;;;;;;8.27;2.85;;;;;;;2.07;57.99;97824.97;5114326;28;20027;-74
2022/02/18 05:20:14;;;;;;;6.78;2.85;;;;;;;2.15;58.13;97818.31;5113393;28;20024;-74
2022/02/18 05:22:39;;;;;;;5.50;2.60;;;;;;;2.19;58.25;97822.94;5114493;28;20081;-75
2022/02/18 05:25:04;;;;;;;10.13;4.93;;;;;;;2.21;57.38;97822.69;5096337;28;20024;-75
2022/02/18 05:27:30;;;;;;;5.30;2.35;;;;;;;2.27;57.57;97831.66;5095229;28;20085;-75
2022/02/18 05:29:55;;;;;;;7.82;3.28;;;;;;;2.31;57.97;97830.88;5113536;28;20019;-73
2022/02/18 05:32:21;;;;;;;5.45;2.67;;;;;;;2.33;57.64;97834.16;5113622;28;20027;-74
2022/02/18 05:34:46;;;;;;;4.55;2.00;;;;;;;2.35;57.26;97847.44;5114072;28;20106;-70
2022/02/18 05:37:12;;;;;;;4.18;2.00;;;;;;;2.37;57.06;97843.38;5114322;28;20102;-71
2022/02/18 05:39:37;;;;;;;6.78;2.50;;;;;;;2.40;57.94;97854.78;5113755;28;20523;-71
2022/02/18 05:42:03;;;;;;;6.32;2.30;;;;;;;2.38;57.74;97860.47;5113729;28;20044;-71
2022/02/18 05:44:31;;;;;;;5.90;1.90;;;;;;;2.42;57.41;97860.75;5114095;28;20477;-71
2022/02/18 05:46:58;;;;;;;7.78;2.55;;;;;;;2.41;57.43;97862.66;5113912;28;20035;-72
2022/02/18 05:49:23;;;;;;;7.80;2.35;;;;;;;2.42;57.14;97874.28;5113479;28;20035;-71
2022/02/18 05:51:49;;;;;;;6.47;2.70;;;;;;;2.42;57.09;97874.28;5112109;28;20119;-70
2022/02/18 05:54:14;;;;;;;6.13;2.10;;;;;;;2.41;56.80;97872.66;5113645;28;20024;-71
2022/02/18 05:56:39;;;;;;;8.13;3.20;;;;;;;2.42;56.74;97871.56;5113647;28;20050;-71
2022/02/18 05:59:05;;;;;;;11.68;2.92;;;;;;;2.46;57.51;97878.91;5113532;28;20436;-71
2022/02/18 06:01:30;;;;;;;9.32;2.97;;;;;;;2.47;57.00;97877.03;5113249;28;20063;-72
2022/02/18 06:03:55;;;;;;;9.48;3.10;;;;;;;2.47;56.57;97871.63;5113700;28;20107;-71
2022/02/18 06:06:21;;;;;;;8.05;2.85;;;;;;;2.50;57.06;97873.81;5113215;28;20027;-71
2022/02/18 06:08:46;;;;;;;11.02;3.17;;;;;;;2.49;56.30;97869.47;5113255;28;20024;-71
2022/02/18 06:11:12;;;;;;;7.72;2.78;;;;;;;2.47;56.89;97880.53;5112326;28;20031;-71
2022/02/18 06:13:37;;;;;;;8.40;2.33;;;;;;;2.44;56.13;97885.66;5112912;28;20028;-71
2022/02/18 06:16:03;;;;;;;7.05;2.15;;;;;;;2.44;56.48;97896.50;5113030;28;20032;-72
2022/02/18 06:18:28;;;;;;;7.72;2.55;;;;;;;2.42;56.42;97888.66;5112823;28;20054;-71
2022/02/18 06:20:53;;;;;;;10.38;2.80;;;;;;;2.39;56.85;97897.28;5112462;28;20052;-71
2022/02/18 06:23:19;;;;;;;5.85;2.45;;;;;;;2.39;56.30;97897.28;5112998;28;20471;-71
2022/02/18 06:25:44;;;;;;;8.15;2.72;;;;;;;2.36;56.25;97898.59;5112909;28;20031;-71
2022/02/18 06:28:13;;;;;;;11.02;3.88;;;;;;;2.34;56.22;97899.94;5112600;28;20073;-71
2022/02/18 06:30:40;;;;;;;8.55;3.97;;;;;;;2.32;56.68;97902.06;5111483;28;20087;-72
2022/02/18 06:33:06;;;;;;;7.97;3.25;;;;;;;2.32;56.66;97910.19;5111683;28;20028;-71
2022/02/18 06:35:32;;;;;;;8.80;3.63;;;;;;;2.32;56.41;97907.47;5111289;28;20464;-71
2022/02/18 06:37:58;;;;;;;8.07;2.78;;;;;;;2.33;56.34;97904.50;5112544;28;20502;-71
2022/02/18 06:40:23;;;;;;;13.73;4.45;;;;;;;2.35;57.18;97906.97;5110419;28;20024;-71
2022/02/18 06:42:49;;;;;;;12.43;3.75;;;;;;;2.36;56.61;97909.41;5110975;28;20858;-71
2022/02/18 06:45:17;;;;;;;12.63;4.00;;;;;;;2.40;57.09;97909.72;5110720;28;20024;-71
2022/02/18 06:47:46;;;;;;;12.05;3.97;;;;;;;2.43;56.45;97913.81;5110983;28;20023;-71
2022/02/18 06:50:13;;;;;;;20.48;6.60;;;;;;;2.46;56.99;97914.09;5110661;28;20088;-71
2022/02/18 06:52:39;;;;;;;14.23;4.18;;;;;;;2.49;56.50;97919.00;5110839;28;20020;-71
2022/02/18 06:55:06;;;;;;;14.52;5.75;;;;;;;2.56;56.15;97917.97;5111535;28;20055;-70
2022/02/18 06:57:31;;;;;;;14.77;4.60;;;;;;;2.60;55.54;97919.94;5112163;28;20065;-72
2022/02/18 06:59:57;;;;;;;12.45;4.60;;;;;;;2.68;55.88;97926.75;5107563;28;20433;-71
2022/02/18 07:02:22;;;;;;;10.70;3.85;;;;;;;2.72;56.17;97933.28;5110620;28;20426;-71
2022/02/18 07:04:47;;;;;;;10.82;4.30;;;;;;;2.78;56.01;97943.09;5111103;28;20398;-71
2022/02/18 07:07:13;;;;;;;11.02;3.92;;;;;;;2.83;55.59;97942.31;5091349;28;20111;-71
2022/02/18 07:09:38;;;;;;;10.77;3.80;;;;;;;2.88;55.71;97944.22;5111249;28;20073;-70
2022/02/18 07:12:04;;;;;;;12.45;4.25;;;;;;;2.92;55.86;97938.06;5110947;28;20087;-70
2022/02/18 07:14:30;;;;;;;12.75;5.22;;;;;;;2.95;55.87;97948.38;5111225;28;20509;-70
2022/02/18 07:16:55;;;;;;;12.65;5.13;;;;;;;3.01;54.96;97951.13;5111121;28;20043;-72
2022/02/18 07:19:21;;;;;;;13.80;5.22;;;;;;;3.07;55.72;97950.06;5110450;28;20027;-72
2022/02/18 07:21:46;;;;;;;14.35;4.55;;;;;;;3.11;54.75;97949.31;5110356;28;20032;-71
2022/02/18 07:24:12;;;;;;;13.57;4.43;;;;;;;3.19;55.53;97952.63;5111131;28;20026;-71
2022/02/18 07:26:38;;;;;;;13.13;3.65;;;;;;;3.24;55.04;97953.47;5111110;28;20051;-72
2022/02/18 07:29:05;;;;;;;11.65;4.38;;;;;;;3.31;55.43;97953.22;5111021;28;20024;-73
2022/02/18 07:31:30;;;;;;;11.13;4.10;;;;;;;3.37;54.84;97941.34;5109860;28;20589;-71
2022/02/18 07:33:56;;;;;;;18.73;8.30;;;;;;;3.42;54.86;97938.66;5111172;28;20723;-71
2022/02/18 07:36:22;;;;;;;12.32;5.13;;;;;;;3.48;55.19;97936.78;5111071;28;20028;-71
2022/02/18 07:38:47;;;;;;;16.88;7.13;;;;;;;3.55;55.45;97945.50;5110862;28;20035;-70
2022/02/18 07:41:12;;;;;;;18.55;7.13;;;;;;;3.62;54.36;97950.72;5110413;28;20459;-70
2022/02/18 07:43:38;;;;;;;21.88;7.43;;;;;;;3.68;54.94;97948.81;5089176;28;20032;-71
2022/02/18 07:46:03;;;;;;;15.35;5.22;;;;;;;3.79;54.12;97942.38;5110168;28;20077;-71
2022/02/18 07:48:29;;;;;;;15.10;5.10;;;;;;;3.86;53.54;97945.66;5111104;28;20387;-71
2022/02/18 07:50:55;;;;;;;10.82;4.03;;;;;;;3.92;54.24;97954.63;5110196;28;20035;-70
2022/02/18 07:53:21;;;;;;;12.43;4.25;;;;;;;4.00;53.26;97956.84;5110739;28;20024;-70
2022/02/18 07:55:48;;;;;;;11.63;4.13;;;;;;;4.05;53.69;97953.31;5110158;28;20388;-70
2022/02/18 07:58:14;;;;;;;11.90;3.90;;;;;;;4.12;53.00;97948.47;5111020;28;20065;-70
2022/02/18 08:00:39;;;;;;;12.48;3.83;;;;;;;4.22;53.36;97957.72;5109720;28;20467;-71
2022/02/18 08:03:04;;;;;;;14.98;4.00;;;;;;;4.36;51.67;97945.25;5110496;28;20024;-71
2022/02/18 08:05:30;;;;;;;12.10;4.10;;;;;;;4.47;52.00;97952.34;5110652;28;20012;-72
2022/02/18 08:07:57;;;;;;;11.45;4.03;;;;;;;4.56;51.82;97959.97;5110279;28;20023;-71
2022/02/18 08:10:23;;;;;;;12.63;3.72;;;;;;;4.61;51.51;97968.94;5109922;28;20058;-70
2022/02/18 08:12:48;;;;;;;6.90;2.80;;;;;;;4.65;50.51;97966.53;5110399;28;20452;-70
2022/02/18 08:15:14;;;;;;;11.68;3.33;;;;;;;4.73;51.08;97959.72;5113465;28;20048;-71
2022/02/18 08:17:39;;;;;;;13.05;3.22;;;;;;;4.85;50.29;97954.84;5114267;28;20034;-71
2022/02/18 08:20:06;;;;;;;14.50;4.07;;;;;;;4.99;50.88;97948.84;5113965;28;20019;-72
2022/02/18 08:22:32;;;;;;;11.00;3.10;;;;;;;5.09;49.71;97948.88;5114211;28;20122;-71
2022/02/18 08:24:58;;;;;;;14.52;4.30;;;;;;;5.23;49.30;97951.84;5114560;28;20102;-70
2022/02/18 08:27:23;;;;;;;10.93;3.72;;;;;;;5.40;50.33;97951.53;5114687;28;20027;-71
2022/02/18 08:29:49;;;;;;;12.05;3.90;;;;;;;5.54;49.39;97949.06;5113960;28;20433;-71
2022/02/18 08:32:14;;;;;;;15.73;5.32;;;;;;;5.57;48.57;97953.94;5113376;28;20036;-70
2022/02/18 08:34:40;;;;;;;11.68;3.92;;;;;;;5.57;48.74;97959.38;5094230;28;20050;-71
2022/02/18 08:37:05;;;;;;;9.50;2.97;;;;;;;5.59;47.98;97949.03;5114266;28;20019;-71
2022/02/18 08:39:31;;;;;;;11.73;4.15;;;;;;;5.63;48.24;97954.78;5113763;28;20077;-71
2022/02/18 08:41:56;;;;;;;10.95;4.00;;;;;;;5.67;48.53;97944.97;5113321;28;20027;-71
2022/02/18 08:44:22;;;;;;;11.80;3.30;;;;;;;5.69;49.21;97947.41;5113959;28;20530;-71
2022/02/18 08:46:47;;;;;;;7.63;2.58;;;;;;;5.70;46.97;97941.69;5114002;28;20106;-71
2022/02/18 08:49:13;;;;;;;7.57;2.80;;;;;;;5.78;47.65;97951.19;5094024;28;20059;-72
2022/02/18 08:51:38;;;;;;;12.98;4.38;;;;;;;5.93;48.31;97955.75;5076842;28;20027;-73
2022/02/18 08:54:04;;;;;;;8.23;3.20;;;;;;;6.08;47.86;97947.56;5112487;28;20061;-71
2022/02/18 08:56:30;;;;;;;14.75;4.50;;;;;;;6.19;47.52;97953.78;5091400;28;20047;-70
2022/02/18 08:58:57;;;;;;;12.52;3.17;;;;;;;6.22;47.73;97942.31;5109058;28;20571;-72
2022/02/18 09:01:26;;;;;;;8.63;3.40;;;;;;;6.32;47.61;97946.06;5113078;28;20036;-73
2022/02/18 09:03:52;;;;;;;8.23;3.13;;;;;;;6.33;48.21;97950.41;5113207;28;20111;-72
2022/02/18 09:06:17;;;;;;;10.90;2.63;;;;;;;6.32;47.88;97948.78;5113806;28;20111;-70
2022/02/18 09:08:42;;;;;;;9.70;3.30;;;;;;;6.34;47.68;97949.31;5113366;28;20023;-72
2022/02/18 09:11:08;;;;;;;12.10;3.67;;;;;;;6.40;48.22;97954.47;5112001;28;20077;-71
2022/02/18 09:13:33;;;;;;;9.20;3.08;;;;;;;6.47;47.17;97945.97;5113090;28;20023;-77
2022/02/18 09:15:59;;;;;;;7.00;2.60;;;;;;;6.40;47.16;97956.38;5113010;28;20062;-70
2022/02/18 09:18:24;;;;;;;8.68;3.03;;;;;;;6.38;47.79;97964.84;5112669;28;20038;-71
2022/02/18 09:20:50;;;;;;;10.80;3.28;;;;;;;6.31;47.00;97960.81;5112542;28;20055;-71
2022/02/18 09:23:15;;;;;;;7.15;2.70;;;;;;;6.23;47.64;97963.00;5111737;28;20063;-74
2022/02/18 09:25:41;;;;;;;6.35;2.63;;;;;;;6.25;48.18;97954.53;5112634;28;20030;-73
2022/02/18 09:28:07;;;;;;;6.63;2.53;;;;;;;6.29;48.44;97958.34;5111080;28;20070;-74
2022/02/18 09:30:34;;;;;;;8.98;2.90;;;;;;;6.29;48.09;97958.34;5088883;28;20016;-73
2022/02/18 09:33:00;;;;;;;6.63;2.50;;;;;;;6.37;48.42;97957.75;5112009;28;20080;-74
2022/02/18 09:35:26;;;;;;;5.20;2.20;;;;;;;6.54;48.92;97964.72;5113144;28;20099;-74
2022/02/18 09:37:53;;;;;;;5.93;2.28;;;;;;;6.69;49.14;97966.56;5092611;28;20030;-73
2022/02/18 09:40:18;;;;;;;4.82;1.95;;;;;;;6.82;48.76;97968.63;5093380;28;20023;-73
2022/02/18 09:42:45;;;;;;;8.05;2.80;;;;;;;6.95;48.25;97963.66;5113792;28;20076;-73
2022/02/18 09:45:11;;;;;;;5.70;2.40;;;;;;;7.14;49.11;97959.09;5113866;28;20035;-74
2022/02/18 09:47:40;;;;;;;5.85;2.30;;;;;;;7.28;48.19;97950.28;5114077;28;20038;-74
2022/02/18 09:50:06;;;;;;;4.63;1.80;;;;;;;7.34;48.46;97960.03;5113309;28;20023;-74
2022/02/18 09:52:32;;;;;;;7.60;1.90;;;;;;;7.39;48.76;97957.28;5114015;28;20020;-74
2022/02/18 09:54:58;;;;;;;6.15;1.67;;;;;;;7.40;48.27;97966.25;5113174;28;20020;-74
2022/02/18 09:57:25;;;;;;;5.20;1.80;;;;;;;7.34;48.75;97962.75;5075976;28;20139;-74
2022/02/18 09:59:51;;;;;;;4.70;1.98;;;;;;;7.35;49.11;97961.66;5113581;28;20027;-74
2022/02/18 10:02:17;;;;;;;6.20;2.03;;;;;;;7.40;48.88;97958.06;5113092;28;20368;-74
2022/02/18 10:04:42;;;;;;;6.18;1.60;;;;;;;7.39;48.10;97951.81;5113206;28;20023;-74
2022/02/18 10:07:08;;;;;;;4.35;1.73;;;;;;;7.43;47.65;97958.31;5113739;28;20023;-74
2022/02/18 10:09:44;;;;;;;6.63;1.98;;;;;;;7.53;47.28;97937.50;5113722;28;20476;-74
2022/02/18 10:12:12;;;;;;;5.10;1.98;;;;;;;7.57;48.15;97936.63;5112986;28;20023;-74
2022/02/18 10:14:59;;;;;;;11.05;3.72;;;;;;;7.69;48.40;97938.13;5113515;28;20023;-75
2022/02/18 10:17:48;;;;;;;9.55;3.17;;;;;;;7.72;48.04;97937.56;5112856;28;20476;-74
2022/02/18 10:20:24;;;;;;;8.38;3.08;;;;;;;7.76;48.03;97938.59;5112650;28;20066;-74
2022/02/18 10:22:56;;;;;;;15.05;5.95;;;;;;;7.89;48.00;97931.63;5113044;28;20027;-74
2022/02/18 10:25:30;;;;;;;9.55;2.67;;;;;;;7.91;47.15;97934.88;5112737;28;20031;-75
2022/02/18 10:27:57;;;;;;;9.57;3.40;;;;;;;7.92;47.76;97925.59;5113196;28;20061;-74
2022/02/18 10:30:25;;;;;;;11.90;5.03;;;;;;;7.94;47.57;97945.22;5112391;28;20015;-74
2022/02/18 10:32:52;;;;;;;11.77;4.10;;;;;;;7.86;47.79;97938.47;5113047;28;20080;-74
2022/02/18 10:35:19;;;;;;;8.25;3.90;;;;;;;7.82;47.58;97931.16;5112602;28;20038;-74
2022/02/18 10:37:54;;;;;;;8.82;3.63;;;;;;;7.77;47.02;97932.03;5112017;28;20484;-74
2022/02/18 10:40:21;;;;;;;27.33;12.70;;;;;;;7.78;48.16;97927.38;5111972;28;20038;-74
2022/02/18 10:42:48;;;;;;;14.45;7.05;;;;;;;7.84;48.09;97934.41;5112697;28;20032;-75
2022/02/18 10:45:15;;;;;;;5.28;2.50;;;;;;;7.84;48.19;97915.31;5112481;28;20035;-74
2022/02/18 10:47:41;;;;;;;9.52;2.97;;;;;;;7.87;47.97;97917.47;5112643;28;20459;-74
2022/02/18 10:50:14;;;;;;;5.57;2.30;;;;;;;8.00;48.31;97903.06;5112262;28;20111;-74
2022/02/18 10:52:39;;;;;;;10.18;3.13;;;;;;;8.19;47.96;97905.81;5112711;28;20028;-74
2022/02/18 10:55:09;;;;;;;11.00;3.80;;;;;;;8.38;48.56;97896.00;5112107;28;20038;-75
2022/02/18 10:57:35;;;;;;;10.57;2.72;;;;;;;8.56;48.02;97899.91;5112305;28;20041;-75
2022/02/18 11:00:12;;;;;;;6.22;2.45;;;;;;;8.64;47.23;97897.28;5112204;28;20125;-75
2022/02/18 11:02:42;;;;;;;7.35;2.42;;;;;;;8.60;46.18;97901.72;5112527;28;20158;-74
2022/02/18 11:05:29;;;;;;;4.32;1.50;;;;;;;8.53;46.00;97890.34;5112234;28;20027;-74
2022/02/18 11:07:56;;;;;;;6.10;2.03;;;;;;;8.52;44.78;97899.66;5112223;28;20031;-74
2022/02/18 11:10:31;;;;;;;6.07;2.00;;;;;;;8.55;45.05;97893.59;5111929;28;20421;-74
2022/02/18 11:12:57;;;;;;;5.60;1.60;;;;;;;8.65;44.85;97903.56;5112313;28;20456;-73
2022/02/18 11:15:23;;;;;;;4.20;1.42;;;;;;;8.75;44.26;97894.41;5112022;28;20387;-75
2022/02/18 11:17:52;;;;;;;4.05;1.50;;;;;;;8.71;44.56;97875.03;5111865;28;20027;-75
2022/02/18 11:20:18;;;;;;;5.18;1.70;;;;;;;8.71;45.95;97876.97;5111077;28;20024;-74
2022/02/18 11:22:44;;;;;;;4.82;2.03;;;;;;;8.77;45.66;97870.28;5112238;28;20403;-75
2022/02/18 11:25:11;;;;;;;8.50;2.05;;;;;;;8.78;45.85;97863.72;5111731;28;20027;-74
2022/02/18 11:27:37;;;;;;;6.00;2.30;;;;;;;8.92;46.58;97877.44;5112262;28;20058;-74
2022/02/18 11:30:03;;;;;;;8.05;2.55;;;;;;;9.01;44.74;97880.31;5111551;28;20073;-75
2022/02/18 11:32:36;;;;;;;6.55;1.77;;;;;;;9.13;44.58;97874.34;5093296;28;20015;-75
2022/02/18 11:35:10;;;;;;;7.03;3.13;;;;;;;9.29;43.89;97877.59;5111718;28;20031;-74